createdAt,value
2019-02-15T00:00:34.773Z,84.40
2019-02-15T00:03:02.659Z,84.30
2019-02-15T00:05:29.833Z,84.20
2019-02-15T00:07:57.116Z,84.80
2019-02-15T00:10:24.332Z,84.70
2019-02-15T00:12:52.209Z,84.80
2019-02-15T00:15:19.728Z,84.70
2019-02-15T00:18:09.266Z,84.70
2019-02-15T00:20:41.311Z,84.70
2019-02-15T00:23:08.650Z,84.80
2019-02-15T00:25:36.190Z,84.50
2019-02-15T00:28:03.584Z,84.70
2019-02-15T00:30:30.812Z,84.60
2019-02-15T00:32:58.101Z,84.60
2019-02-15T00:35:25.491Z,84.70
2019-02-15T00:37:52.867Z,84.90
2019-02-15T00:40:20.226Z,85.30
2019-02-15T00:42:47.654Z,85.50
2019-02-15T00:45:19.797Z,85.40
2019-02-15T00:47:53.003Z,85.50
2019-02-15T00:50:38.630Z,85.60
2019-02-15T00:53:18.947Z,85.60
2019-02-15T00:56:04.378Z,85.80
2019-02-15T00:58:51.257Z,85.70
2019-02-15T01:01:43.892Z,85.70
2019-02-15T01:04:30.701Z,85.70
2019-02-15T01:07:12.507Z,85.90
2019-02-15T01:09:55.838Z,86.00
2019-02-15T01:12:30.973Z,85.90
2019-02-15T01:14:58.661Z,86.20
2019-02-15T01:17:25.771Z,86.40
2019-02-15T01:19:53.338Z,86.10
2019-02-15T01:22:20.663Z,85.90
2019-02-15T01:24:47.966Z,85.90
2019-02-15T01:27:33.763Z,86.10
2019-02-15T01:30:20.587Z,86.40
2019-02-15T01:32:58.723Z,86.20
2019-02-15T01:35:44.010Z,86.30
2019-02-15T01:38:20.359Z,86.60
2019-02-15T01:41:19.152Z,86.40
2019-02-15T01:43:56.839Z,86.40
2019-02-15T01:46:38.126Z,86.80
2019-02-15T01:49:05.710Z,86.70
2019-02-15T01:51:32.990Z,86.60
2019-02-15T01:54:00.206Z,86.60
2019-02-15T01:56:27.526Z,87.00
2019-02-15T01:58:55.098Z,87.10
2019-02-15T02:01:24.493Z,86.90
2019-02-15T02:03:51.544Z,87.00
2019-02-15T02:06:18.737Z,87.00
2019-02-15T02:08:45.948Z,87.00
2019-02-15T02:11:13.310Z,87.20
2019-02-15T02:13:49.285Z,86.80
2019-02-15T02:16:10.038Z,86.90
2019-02-15T02:18:37.335Z,87.00
2019-02-15T02:21:04.563Z,87.10
2019-02-15T02:23:31.727Z,87.10
2019-02-15T02:25:58.975Z,87.00
2019-02-15T02:28:26.582Z,87.00
2019-02-15T02:30:53.744Z,86.80
2019-02-15T02:33:22.155Z,86.80
2019-02-15T02:35:49.751Z,87.60
2019-02-15T02:38:17.050Z,87.30
2019-02-15T02:40:44.314Z,87.40
2019-02-15T02:43:11.513Z,87.10
2019-02-15T02:45:38.811Z,87.30
2019-02-15T02:48:06.047Z,87.20
2019-02-15T02:50:33.213Z,87.20
2019-02-15T02:53:00.640Z,87.40
2019-02-15T02:55:27.973Z,87.70
2019-02-15T02:57:55.405Z,88.00
2019-02-15T03:00:22.466Z,88.30
2019-02-15T03:02:49.804Z,88.40
2019-02-15T03:05:16.903Z,88.50
2019-02-15T03:07:44.130Z,88.10
2019-02-15T03:10:11.418Z,88.00
2019-02-15T03:12:38.611Z,88.20
2019-02-15T03:15:06.345Z,88.10
2019-02-15T03:17:34.203Z,87.90
2019-02-15T03:20:01.492Z,88.00
2019-02-15T03:22:28.890Z,88.10
2019-02-15T03:24:56.091Z,88.30
2019-02-15T03:27:23.315Z,88.20
2019-02-15T03:29:50.713Z,88.10
2019-02-15T03:32:17.917Z,87.60
2019-02-15T03:34:45.279Z,87.80
2019-02-15T03:37:30.462Z,87.60
2019-02-15T03:40:02.556Z,87.80
2019-02-15T03:42:30.019Z,88.10
2019-02-15T03:44:57.329Z,88.10
2019-02-15T03:47:26.982Z,88.70
2019-02-15T03:49:54.243Z,88.60
2019-02-15T03:52:21.633Z,88.80
2019-02-15T03:54:48.989Z,88.70
2019-02-15T03:57:16.185Z,88.80
2019-02-15T03:59:43.357Z,88.60
2019-02-15T04:02:10.575Z,89.00
2019-02-15T04:04:37.919Z,89.30
2019-02-15T04:07:05.164Z,89.40
2019-02-15T04:09:32.619Z,89.10
2019-02-15T04:11:59.948Z,89.10
2019-02-15T04:14:32.913Z,89.00
2019-02-15T04:16:56.218Z,88.60
2019-02-15T04:19:23.468Z,89.30
2019-02-15T04:21:50.438Z,88.60
2019-02-15T04:24:19.190Z,88.50
2019-02-15T04:26:46.440Z,88.70
2019-02-15T04:29:13.665Z,88.60
2019-02-15T04:31:40.761Z,88.40
2019-02-15T04:34:08.032Z,88.20
2019-02-15T04:36:35.533Z,88.30
2019-02-15T04:39:04.409Z,88.20
2019-02-15T04:41:33.014Z,88.70
2019-02-15T04:44:00.108Z,88.70
2019-02-15T04:46:27.421Z,88.60
2019-02-15T04:48:54.618Z,88.70
2019-02-15T04:51:21.987Z,88.70
2019-02-15T04:53:49.100Z,88.60
2019-02-15T04:56:16.446Z,88.70
2019-02-15T04:58:43.700Z,88.90
2019-02-15T05:01:10.943Z,88.70
2019-02-15T05:03:38.032Z,88.50
2019-02-15T05:06:05.403Z,88.80
2019-02-15T05:08:32.484Z,88.70
2019-02-15T05:10:59.844Z,88.10
2019-02-15T05:13:27.234Z,88.60
2019-02-15T05:15:54.687Z,88.70
2019-02-15T05:18:22.024Z,88.70
2019-02-15T05:20:49.464Z,88.40
2019-02-15T05:23:17.270Z,88.30
2019-02-15T05:25:44.392Z,88.50
2019-02-15T05:28:11.621Z,88.30
2019-02-15T05:30:38.854Z,88.90
2019-02-15T05:33:06.053Z,88.70
2019-02-15T05:35:34.442Z,88.30
2019-02-15T05:38:01.786Z,88.50
2019-02-15T05:40:28.994Z,88.50
2019-02-15T05:42:56.247Z,88.70
2019-02-15T05:45:23.481Z,88.70
2019-02-15T05:47:50.864Z,88.30
2019-02-15T05:50:18.212Z,88.20
2019-02-15T05:52:45.488Z,88.20
2019-02-15T05:55:12.683Z,89.30
2019-02-15T05:57:39.886Z,90.20
2019-02-15T06:00:08.050Z,90.40
2019-02-15T06:02:35.362Z,90.20
2019-02-15T06:05:02.576Z,89.90
2019-02-15T06:07:29.701Z,89.90
2019-02-15T06:09:57.246Z,89.80
2019-02-15T06:12:25.748Z,89.90
2019-02-15T06:14:53.204Z,89.50
2019-02-15T06:17:20.579Z,88.40
2019-02-15T06:19:48.073Z,88.40
2019-02-15T06:22:15.540Z,88.70
2019-02-15T06:24:42.898Z,88.70
2019-02-15T06:27:10.078Z,88.30
2019-02-15T06:29:37.778Z,88.20
2019-02-15T06:32:04.840Z,88.40
2019-02-15T06:34:32.504Z,88.10
2019-02-15T06:36:59.863Z,88.20
2019-02-15T06:39:26.947Z,88.10
2019-02-15T06:41:54.321Z,88.30
2019-02-15T06:44:21.927Z,88.40
2019-02-15T06:46:49.182Z,88.40
2019-02-15T06:49:16.619Z,88.40
2019-02-15T06:51:43.984Z,88.30
2019-02-15T06:54:11.373Z,88.30
2019-02-15T06:56:38.453Z,88.60
2019-02-15T06:59:33.027Z,88.40
2019-02-15T07:02:15.022Z,88.40
2019-02-15T07:05:13.980Z,88.50
2019-02-15T07:07:41.298Z,89.10
2019-02-15T07:10:08.541Z,89.10
2019-02-15T07:12:35.946Z,89.20
2019-02-15T07:15:03.533Z,89.10
2019-02-15T07:17:31.999Z,89.30
2019-02-15T07:19:59.224Z,89.30
2019-02-15T07:22:26.555Z,89.50
2019-02-15T07:24:53.746Z,89.10
2019-02-15T07:27:21.087Z,89.20
2019-02-15T07:29:48.430Z,89.40
2019-02-15T07:32:15.504Z,89.80
2019-02-15T07:34:42.747Z,89.80
2019-02-15T07:37:10.260Z,90.00
2019-02-15T07:39:37.581Z,89.90
2019-02-15T07:42:04.811Z,89.80
2019-02-15T07:44:32.729Z,89.70
2019-02-15T07:47:00.000Z,89.80
2019-02-15T07:49:27.410Z,89.80
2019-02-15T07:51:54.699Z,89.60
2019-02-15T07:54:22.386Z,89.70
2019-02-15T07:56:49.685Z,89.40
2019-02-15T07:59:16.758Z,89.60
2019-02-15T08:01:44.022Z,89.50
2019-02-15T08:04:11.596Z,89.40
2019-02-15T08:06:39.166Z,89.30
2019-02-15T08:09:10.651Z,89.10
2019-02-15T08:11:38.080Z,88.90
2019-02-15T08:14:14.312Z,88.90
2019-02-15T08:16:34.719Z,88.40
2019-02-15T08:19:02.095Z,88.30
2019-02-15T08:21:29.319Z,88.10
2019-02-15T08:23:57.020Z,88.20
2019-02-15T08:26:24.348Z,87.80
2019-02-15T08:28:51.526Z,87.30
2019-02-15T08:31:19.849Z,87.00
2019-02-15T08:33:47.434Z,86.90
2019-02-15T08:36:14.660Z,86.60
2019-02-15T08:38:42.066Z,86.40
2019-02-15T08:41:09.268Z,86.30
2019-02-15T08:43:37.554Z,86.10
2019-02-15T08:46:05.031Z,85.80
2019-02-15T08:48:32.288Z,85.60
2019-02-15T08:50:59.538Z,85.30
2019-02-15T08:53:27.094Z,85.20
2019-02-15T08:55:54.319Z,84.80
2019-02-15T08:58:21.685Z,84.50
2019-02-15T09:00:48.891Z,84.20
2019-02-15T09:03:16.233Z,84.00
2019-02-15T09:05:43.700Z,83.70
2019-02-15T09:08:10.792Z,83.10
2019-02-15T09:10:38.469Z,83.00
2019-02-15T09:13:05.744Z,83.10
2019-02-15T09:15:33.136Z,82.50
2019-02-15T09:18:00.417Z,82.30
2019-02-15T09:20:27.736Z,82.20
2019-02-15T09:22:55.249Z,82.00
2019-02-15T09:25:22.627Z,81.70
2019-02-15T09:28:15.290Z,81.30
2019-02-15T09:30:44.292Z,81.40
2019-02-15T09:33:11.694Z,81.10
2019-02-15T09:35:39.063Z,80.80
2019-02-15T09:38:06.434Z,80.40
2019-02-15T09:40:33.656Z,80.50
2019-02-15T09:43:00.901Z,80.10
2019-02-15T09:45:28.211Z,80.10
2019-02-15T09:47:55.482Z,80.20
2019-02-15T09:50:22.699Z,81.40
2019-02-15T09:52:50.050Z,81.20
2019-02-15T09:55:17.505Z,81.00
2019-02-15T09:57:44.858Z,79.30
2019-02-15T10:00:12.173Z,78.50
2019-02-15T10:02:39.508Z,76.20
2019-02-15T10:05:06.783Z,74.80
2019-02-15T10:07:34.183Z,70.50
2019-02-15T10:10:01.550Z,68.80
2019-02-15T10:12:28.751Z,68.30
2019-02-15T10:14:55.766Z,68.60
2019-02-15T10:17:22.937Z,69.80
2019-02-15T10:19:50.286Z,69.20
2019-02-15T10:22:17.651Z,67.90
2019-02-15T10:24:45.085Z,66.90
2019-02-15T10:27:12.395Z,66.70
2019-02-15T10:29:39.677Z,66.60
2019-02-15T10:32:06.871Z,65.40
2019-02-15T10:34:34.554Z,64.40
2019-02-15T10:37:01.909Z,65.10
2019-02-15T10:39:29.257Z,64.60
2019-02-15T10:41:56.615Z,64.30
2019-02-15T10:44:23.949Z,64.10
2019-02-15T10:46:51.347Z,63.10
2019-02-15T10:49:19.093Z,63.90
2019-02-15T10:51:46.492Z,63.50
2019-02-15T10:54:13.741Z,61.30
2019-02-15T10:56:41.362Z,61.20
2019-02-15T10:59:08.857Z,61.30
2019-02-15T11:01:36.225Z,61.40
2019-02-15T11:04:03.530Z,60.90
2019-02-15T11:06:32.321Z,60.10
2019-02-15T11:08:59.693Z,60.20
2019-02-15T11:11:26.871Z,61.10
2019-02-15T11:13:54.119Z,60.40
2019-02-15T11:16:21.329Z,60.60
2019-02-15T11:18:48.422Z,61.20
2019-02-15T11:21:15.800Z,61.10
2019-02-15T11:23:43.477Z,61.20
2019-02-15T11:26:10.775Z,60.30
2019-02-15T11:28:37.945Z,61.30
2019-02-15T11:31:05.197Z,61.30
2019-02-15T11:33:32.351Z,61.40
2019-02-15T11:35:59.860Z,61.30
2019-02-15T11:38:27.077Z,60.80
2019-02-15T11:40:54.295Z,60.70
2019-02-15T11:43:21.663Z,60.30
2019-02-15T11:45:49.230Z,60.70
2019-02-15T11:48:16.887Z,60.80
2019-02-15T11:50:44.093Z,60.10
2019-02-15T11:53:11.490Z,59.40
2019-02-15T11:55:38.774Z,59.30
2019-02-15T11:58:06.494Z,59.30
2019-02-15T12:00:34.875Z,58.90
2019-02-15T12:03:02.093Z,58.20
2019-02-15T12:05:29.358Z,58.50
2019-02-15T12:07:56.580Z,57.60
2019-02-15T12:10:23.930Z,57.80
2019-02-15T12:12:51.488Z,58.20
2019-02-15T12:15:18.845Z,57.80
2019-02-15T12:17:46.145Z,57.40
2019-02-15T12:20:13.590Z,56.80
2019-02-15T12:22:40.968Z,57.00
2019-02-15T12:25:08.277Z,57.00
2019-02-15T12:27:35.506Z,56.90
2019-02-15T12:30:03.068Z,56.60
2019-02-15T12:32:30.357Z,55.80
2019-02-15T12:34:58.289Z,55.30
2019-02-15T12:37:25.662Z,54.80
2019-02-15T12:39:52.883Z,54.20
2019-02-15T12:42:20.123Z,55.40
2019-02-15T12:44:48.081Z,55.90
2019-02-15T12:47:15.708Z,54.70
2019-02-15T12:49:43.038Z,55.10
2019-02-15T12:52:10.472Z,55.00
2019-02-15T12:54:37.803Z,54.40
2019-02-15T12:57:05.205Z,54.00
2019-02-15T12:59:32.691Z,54.60
2019-02-15T13:02:00.095Z,54.70
2019-02-15T13:04:27.347Z,55.20
2019-02-15T13:06:54.576Z,55.10
2019-02-15T13:09:21.851Z,54.80
2019-02-15T13:11:48.803Z,54.70
2019-02-15T13:14:15.954Z,54.30
2019-02-15T13:16:43.168Z,54.00
2019-02-15T13:19:10.505Z,54.20
2019-02-15T13:21:37.682Z,54.40
2019-02-15T13:24:04.800Z,53.40
2019-02-15T13:26:32.270Z,54.00
2019-02-15T13:29:00.089Z,54.30
2019-02-15T13:31:27.384Z,53.90
2019-02-15T13:33:54.614Z,52.20
2019-02-15T13:36:21.714Z,51.50
2019-02-15T13:38:48.887Z,51.00
2019-02-15T13:41:16.209Z,51.30
2019-02-15T13:43:43.498Z,51.60
2019-02-15T13:46:10.831Z,50.90
2019-02-15T13:48:38.040Z,51.00
2019-02-15T13:51:05.397Z,50.70
2019-02-15T13:53:32.769Z,51.20
2019-02-15T13:56:00.194Z,51.50
2019-02-15T13:58:27.457Z,51.60
2019-02-15T14:00:54.554Z,51.30
2019-02-15T14:03:21.760Z,51.50
2019-02-15T14:05:48.963Z,51.60
2019-02-15T14:08:16.334Z,51.20
2019-02-15T14:10:43.430Z,50.90
2019-02-15T14:13:11.282Z,51.00
2019-02-15T14:15:38.545Z,50.10
2019-02-15T14:18:05.800Z,49.50
2019-02-15T14:20:33.156Z,49.80
2019-02-15T14:23:00.385Z,49.50
2019-02-15T14:25:27.597Z,49.50
2019-02-15T14:27:54.850Z,49.60
2019-02-15T14:30:22.128Z,49.70
2019-02-15T14:32:49.412Z,49.70
2019-02-15T14:35:16.718Z,49.20
2019-02-15T14:37:43.967Z,49.90
2019-02-15T14:40:11.871Z,49.80
2019-02-15T14:42:39.219Z,50.00
2019-02-15T14:45:07.155Z,49.40
2019-02-15T14:47:35.793Z,49.70
2019-02-15T14:50:03.193Z,49.70
2019-02-15T14:52:30.654Z,50.60
2019-02-15T14:54:58.013Z,49.80
2019-02-15T14:57:25.403Z,50.30
2019-02-15T14:59:53.804Z,50.10
2019-02-15T15:02:21.077Z,50.10
2019-02-15T15:04:48.483Z,50.20
2019-02-15T15:07:16.165Z,50.20
2019-02-15T15:09:43.468Z,49.70
2019-02-15T15:12:10.704Z,48.90
2019-02-15T15:14:38.317Z,48.20
2019-02-15T15:17:05.662Z,48.10
2019-02-15T15:19:32.809Z,48.40
2019-02-15T15:22:00.054Z,48.40
2019-02-15T15:24:28.474Z,48.60
2019-02-15T15:26:56.130Z,48.10
2019-02-15T15:29:23.308Z,48.50
2019-02-15T15:31:50.582Z,48.60
2019-02-15T15:34:18.040Z,49.20
2019-02-15T15:36:45.312Z,48.60
2019-02-15T15:39:12.592Z,48.90
2019-02-15T15:41:40.079Z,48.80
2019-02-15T15:44:07.603Z,49.00
2019-02-15T15:46:35.071Z,48.40
2019-02-15T15:49:02.296Z,48.80
2019-02-15T15:51:30.108Z,48.50
2019-02-15T15:53:57.383Z,49.00
2019-02-15T15:56:24.596Z,49.00
2019-02-15T15:58:51.975Z,48.00
2019-02-15T16:01:19.257Z,48.30
2019-02-15T16:03:46.653Z,48.40
2019-02-15T16:06:23.881Z,48.60
2019-02-15T16:08:43.505Z,48.60
2019-02-15T16:11:11.925Z,49.00
2019-02-15T16:13:39.308Z,49.00
2019-02-15T16:16:06.648Z,49.30
2019-02-15T16:18:35.130Z,49.00
2019-02-15T16:21:02.311Z,49.30
2019-02-15T16:23:29.662Z,49.40
2019-02-15T16:25:57.940Z,50.10
2019-02-15T16:28:25.244Z,50.00
2019-02-15T16:30:52.668Z,50.20
2019-02-15T16:33:20.024Z,50.60
2019-02-15T16:35:47.488Z,51.20
2019-02-15T16:38:14.707Z,51.80
2019-02-15T16:40:41.952Z,52.20
2019-02-15T16:43:09.156Z,52.90
2019-02-15T16:45:36.559Z,52.80
2019-02-15T16:48:03.765Z,52.80
2019-02-15T16:50:31.005Z,53.00
2019-02-15T16:52:58.339Z,54.10
2019-02-15T16:55:25.769Z,53.40
2019-02-15T16:57:53.129Z,53.70
2019-02-15T17:00:20.490Z,53.80
2019-02-15T17:02:47.957Z,54.80
2019-02-15T17:05:15.310Z,54.00
2019-02-15T17:07:42.629Z,53.70
2019-02-15T17:10:10.151Z,54.20
2019-02-15T17:12:37.566Z,54.80
2019-02-15T17:15:05.305Z,55.60
2019-02-15T17:17:32.707Z,56.20
2019-02-15T17:19:59.935Z,56.70
2019-02-15T17:22:27.285Z,57.30
2019-02-15T17:24:55.623Z,57.90
2019-02-15T17:27:22.978Z,58.40
2019-02-15T17:29:50.210Z,58.80
2019-02-15T17:32:17.573Z,59.30
2019-02-15T17:34:44.902Z,59.60
2019-02-15T17:37:12.114Z,59.90
2019-02-15T17:39:40.491Z,60.20
2019-02-15T17:42:07.802Z,60.40
2019-02-15T17:44:35.196Z,60.70
2019-02-15T17:47:02.443Z,60.80
2019-02-15T17:49:29.781Z,61.10
2019-02-15T17:51:57.062Z,61.60
2019-02-15T17:54:24.448Z,62.10
2019-02-15T17:56:51.604Z,62.10
2019-02-15T17:59:18.849Z,62.30
2019-02-15T18:01:46.368Z,62.50
2019-02-15T18:04:13.745Z,62.90
2019-02-15T18:06:41.085Z,63.10
2019-02-15T18:09:09.409Z,63.50
2019-02-15T18:11:36.886Z,63.90
2019-02-15T18:14:04.110Z,63.80
2019-02-15T18:16:31.368Z,65.20
2019-02-15T18:18:58.633Z,66.00
2019-02-15T18:21:26.005Z,65.90
2019-02-15T18:23:53.193Z,66.60
2019-02-15T18:26:20.539Z,67.20
2019-02-15T18:28:47.934Z,66.40
2019-02-15T18:31:16.499Z,66.80
2019-02-15T18:33:44.117Z,66.90
2019-02-15T18:36:11.258Z,66.60
2019-02-15T18:38:40.602Z,66.60
2019-02-15T18:41:13.630Z,66.50
2019-02-15T18:43:37.013Z,67.00
2019-02-15T18:46:04.091Z,67.20
2019-02-15T18:48:31.435Z,66.90
2019-02-15T18:50:59.048Z,67.10
2019-02-15T18:53:26.299Z,67.10
2019-02-15T18:55:54.206Z,67.20
2019-02-15T18:58:21.445Z,67.20
2019-02-15T19:00:48.754Z,67.10
2019-02-15T19:03:16.133Z,68.40
2019-02-15T19:05:43.386Z,68.10
2019-02-15T19:08:11.073Z,68.40
2019-02-15T19:10:38.308Z,69.00
2019-02-15T19:13:05.787Z,69.40
2019-02-15T19:15:32.936Z,70.30
2019-02-15T19:18:00.315Z,70.70
2019-02-15T19:20:27.943Z,69.30
2019-02-15T19:22:55.295Z,70.80
2019-02-15T19:25:22.376Z,70.50
2019-02-15T19:27:50.758Z,69.90
2019-02-15T19:30:20.380Z,70.10
2019-02-15T19:32:47.769Z,70.70
2019-02-15T19:35:14.874Z,71.50
2019-02-15T19:37:42.333Z,71.50
2019-02-15T19:40:10.529Z,71.90
2019-02-15T19:42:38.698Z,72.00
2019-02-15T19:45:07.706Z,72.40
2019-02-15T19:47:34.961Z,72.80
2019-02-15T19:50:02.303Z,72.90
2019-02-15T19:52:30.809Z,72.90
2019-02-15T19:54:58.416Z,73.20
2019-02-15T19:57:25.809Z,73.20
2019-02-15T19:59:56.279Z,73.10
2019-02-15T20:02:23.614Z,73.90
2019-02-15T20:04:50.847Z,73.80
2019-02-15T20:07:18.140Z,73.40
2019-02-15T20:09:45.732Z,73.80
2019-02-15T20:12:13.207Z,73.70
2019-02-15T20:14:40.580Z,74.10
2019-02-15T20:17:07.778Z,74.20
2019-02-15T20:19:35.224Z,74.70
2019-02-15T20:22:02.508Z,74.10
2019-02-15T20:24:30.105Z,74.50
2019-02-15T20:26:57.282Z,74.40
2019-02-15T20:29:24.398Z,74.30
2019-02-15T20:31:51.667Z,73.90
2019-02-15T20:34:19.033Z,75.10
2019-02-15T20:36:46.137Z,75.30
2019-02-15T20:39:13.631Z,75.00
2019-02-15T20:41:41.018Z,74.90
2019-02-15T20:44:08.393Z,75.40
2019-02-15T20:46:35.775Z,75.70
2019-02-15T20:49:04.925Z,75.70
2019-02-15T20:51:32.214Z,75.80
2019-02-15T20:53:59.568Z,76.10
2019-02-15T20:56:27.182Z,76.20
2019-02-15T20:58:54.970Z,76.50
2019-02-15T21:01:22.238Z,76.80
2019-02-15T21:03:49.631Z,76.90
2019-02-15T21:06:17.079Z,76.90
2019-02-15T21:08:44.458Z,77.30
2019-02-15T21:11:11.771Z,77.30
2019-02-15T21:13:39.102Z,77.90
2019-02-15T21:16:06.502Z,77.80
2019-02-15T21:18:33.587Z,77.90
2019-02-15T21:21:00.676Z,77.70
2019-02-15T21:23:27.791Z,78.00
2019-02-15T21:25:54.995Z,78.30
2019-02-15T21:28:22.856Z,78.40
2019-02-15T21:30:50.088Z,78.60
2019-02-15T21:33:17.515Z,78.70
2019-02-15T21:35:44.721Z,79.20
2019-02-15T21:38:12.197Z,78.70
2019-02-15T21:40:39.390Z,78.80
2019-02-15T21:43:07.066Z,78.70
2019-02-15T21:45:34.415Z,78.80
2019-02-15T21:48:01.784Z,79.10
2019-02-15T21:50:29.050Z,79.30
2019-02-15T21:52:56.317Z,79.00
2019-02-15T21:55:23.666Z,79.50
2019-02-15T21:57:50.802Z,79.20
2019-02-15T22:00:19.351Z,79.40
2019-02-15T22:02:46.915Z,79.80
2019-02-15T22:05:15.267Z,79.90
2019-02-15T22:07:43.037Z,80.20
2019-02-15T22:10:10.412Z,80.20
2019-02-15T22:12:37.801Z,80.40
2019-02-15T22:15:06.219Z,80.40
2019-02-15T22:17:33.353Z,80.00
2019-02-15T22:20:00.560Z,80.60
2019-02-15T22:22:28.009Z,80.90
2019-02-15T22:24:55.510Z,80.50
2019-02-15T22:27:22.842Z,80.50
2019-02-15T22:29:50.410Z,80.90
2019-02-15T22:32:17.591Z,81.20
2019-02-15T22:34:44.865Z,81.20
2019-02-15T22:37:12.179Z,80.80
2019-02-15T22:39:39.555Z,81.40
2019-02-15T22:42:06.754Z,81.40
2019-02-15T22:44:34.164Z,81.40
2019-02-15T22:47:01.471Z,81.70
2019-02-15T22:49:28.675Z,81.70
2019-02-15T22:51:56.120Z,81.70
2019-02-15T22:54:23.580Z,81.90
2019-02-15T22:56:50.760Z,81.90
2019-02-15T22:59:17.993Z,81.80
2019-02-15T23:01:45.356Z,82.20
2019-02-15T23:04:12.550Z,82.10
2019-02-15T23:06:39.887Z,82.20
2019-02-15T23:09:18.123Z,82.20
2019-02-15T23:11:45.782Z,82.40
2019-02-15T23:14:12.886Z,82.40
2019-02-15T23:16:41.874Z,82.40
2019-02-15T23:19:09.266Z,82.70
2019-02-15T23:21:37.346Z,82.50
2019-02-15T23:24:04.701Z,82.60
2019-02-15T23:26:31.820Z,82.60
2019-02-15T23:28:59.295Z,82.90
2019-02-15T23:31:26.554Z,83.00
2019-02-15T23:33:53.676Z,83.00
2019-02-15T23:36:21.026Z,83.10
2019-02-15T23:38:48.391Z,83.10
2019-02-15T23:41:15.702Z,83.10
2019-02-15T23:43:43.075Z,83.00
2019-02-15T23:46:10.286Z,82.90
2019-02-15T23:48:37.659Z,83.10
2019-02-15T23:51:04.899Z,83.50
2019-02-15T23:53:32.857Z,83.30
2019-02-15T23:56:00.251Z,83.50
2019-02-15T23:58:27.391Z,83.40
